sensor_id;sensor_type;location;lat;lon;timestamp;P1;durP1;ratioP1;P2;durP2;ratioP2
59824;SDS011;45703;50.898;6.054;2024-01-07T00:01:58;26.48;;;12.93;;
59824;SDS011;45703;50.898;6.054;2024-01-07T00:04:24;24.80;;;13.07;;
59824;SDS011;45703;50.898;6.054;2024-01-07T00:06:49;22.73;;;11.07;;
59824;SDS011;45703;50.898;6.054;2024-01-07T00:09:15;26.65;;;12.57;;
59824;SDS011;45703;50.898;6.054;2024-01-07T00:11:41;26.45;;;12.65;;
59824;SDS011;45703;50.898;6.054;2024-01-07T00:14:06;24.58;;;12.63;;
59824;SDS011;45703;50.898;6.054;2024-01-07T00:16:32;29.15;;;13.82;;
59824;SDS011;45703;50.898;6.054;2024-01-07T00:18:57;27.83;;;13.48;;
59824;SDS011;45703;50.898;6.054;2024-01-07T00:21:23;25.75;;;13.13;;
59824;SDS011;45703;50.898;6.054;2024-01-07T00:23:49;26.17;;;13.07;;
59824;SDS011;45703;50.898;6.054;2024-01-07T00:26:14;24.73;;;12.77;;
59824;SDS011;45703;50.898;6.054;2024-01-07T00:28:40;28.48;;;13.60;;
59824;SDS011;45703;50.898;6.054;2024-01-07T00:31:05;22.98;;;10.77;;
59824;SDS011;45703;50.898;6.054;2024-01-07T00:33:33;24.83;;;13.57;;
59824;SDS011;45703;50.898;6.054;2024-01-07T00:35:59;29.05;;;13.43;;
59824;SDS011;45703;50.898;6.054;2024-01-07T00:38:25;26.15;;;12.57;;
59824;SDS011;45703;50.898;6.054;2024-01-07T00:40:50;28.77;;;14.00;;
59824;SDS011;45703;50.898;6.054;2024-01-07T00:43:15;29.35;;;13.68;;
59824;SDS011;45703;50.898;6.054;2024-01-07T00:45:41;25.10;;;12.95;;
59824;SDS011;45703;50.898;6.054;2024-01-07T00:48:06;26.88;;;13.10;;
59824;SDS011;45703;50.898;6.054;2024-01-07T00:50:32;27.48;;;13.90;;
59824;SDS011;45703;50.898;6.054;2024-01-07T00:52:57;24.80;;;12.88;;
59824;SDS011;45703;50.898;6.054;2024-01-07T00:55:23;27.63;;;12.95;;
59824;SDS011;45703;50.898;6.054;2024-01-07T00:57:49;27.40;;;12.98;;
59824;SDS011;45703;50.898;6.054;2024-01-07T01:00:14;28.13;;;13.65;;
59824;SDS011;45703;50.898;6.054;2024-01-07T01:02:40;28.17;;;13.35;;
59824;SDS011;45703;50.898;6.054;2024-01-07T01:05:06;23.98;;;11.55;;
59824;SDS011;45703;50.898;6.054;2024-01-07T01:07:31;25.90;;;13.00;;
59824;SDS011;45703;50.898;6.054;2024-01-07T01:09:57;29.30;;;14.75;;
59824;SDS011;45703;50.898;6.054;2024-01-07T01:12:23;30.95;;;15.18;;
59824;SDS011;45703;50.898;6.054;2024-01-07T01:14:48;28.42;;;13.88;;
59824;SDS011;45703;50.898;6.054;2024-01-07T01:17:14;29.52;;;14.88;;
59824;SDS011;45703;50.898;6.054;2024-01-07T01:19:39;30.05;;;13.40;;
59824;SDS011;45703;50.898;6.054;2024-01-07T01:22:05;31.80;;;14.65;;
59824;SDS011;45703;50.898;6.054;2024-01-07T01:24:30;28.77;;;14.63;;
59824;SDS011;45703;50.898;6.054;2024-01-07T01:26:55;30.00;;;14.27;;
59824;SDS011;45703;50.898;6.054;2024-01-07T01:29:21;35.75;;;16.75;;
59824;SDS011;45703;50.898;6.054;2024-01-07T01:31:46;33.65;;;15.32;;
59824;SDS011;45703;50.898;6.054;2024-01-07T01:34:11;34.65;;;15.15;;
59824;SDS011;45703;50.898;6.054;2024-01-07T01:36:37;32.05;;;14.38;;
59824;SDS011;45703;50.898;6.054;2024-01-07T01:39:02;33.58;;;14.90;;
59824;SDS011;45703;50.898;6.054;2024-01-07T01:41:28;29.30;;;14.23;;
59824;SDS011;45703;50.898;6.054;2024-01-07T01:43:56;35.30;;;15.63;;
59824;SDS011;45703;50.898;6.054;2024-01-07T01:46:23;32.65;;;15.38;;
59824;SDS011;45703;50.898;6.054;2024-01-07T01:48:49;31.05;;;15.25;;
59824;SDS011;45703;50.898;6.054;2024-01-07T01:51:14;32.63;;;14.30;;
59824;SDS011;45703;50.898;6.054;2024-01-07T01:53:39;37.92;;;16.65;;
59824;SDS011;45703;50.898;6.054;2024-01-07T01:56:05;35.63;;;14.45;;
59824;SDS011;45703;50.898;6.054;2024-01-07T01:58:31;36.33;;;16.10;;
59824;SDS011;45703;50.898;6.054;2024-01-07T02:00:57;33.17;;;15.77;;
59824;SDS011;45703;50.898;6.054;2024-01-07T02:03:23;36.13;;;16.30;;
59824;SDS011;45703;50.898;6.054;2024-01-07T02:05:50;35.83;;;16.38;;
59824;SDS011;45703;50.898;6.054;2024-01-07T02:08:16;36.08;;;15.45;;
59824;SDS011;45703;50.898;6.054;2024-01-07T02:10:43;40.65;;;16.92;;
59824;SDS011;45703;50.898;6.054;2024-01-07T02:13:10;36.05;;;16.55;;
59824;SDS011;45703;50.898;6.054;2024-01-07T02:15:35;36.40;;;17.33;;
59824;SDS011;45703;50.898;6.054;2024-01-07T02:18:00;33.60;;;16.30;;
59824;SDS011;45703;50.898;6.054;2024-01-07T02:20:26;33.13;;;15.35;;
59824;SDS011;45703;50.898;6.054;2024-01-07T02:22:51;36.22;;;15.68;;
59824;SDS011;45703;50.898;6.054;2024-01-07T02:25:17;36.22;;;16.30;;
59824;SDS011;45703;50.898;6.054;2024-01-07T02:27:42;33.40;;;15.07;;
59824;SDS011;45703;50.898;6.054;2024-01-07T02:30:08;33.35;;;15.00;;
59824;SDS011;45703;50.898;6.054;2024-01-07T02:32:33;32.42;;;14.63;;
59824;SDS011;45703;50.898;6.054;2024-01-07T02:35:01;32.05;;;13.82;;
59824;SDS011;45703;50.898;6.054;2024-01-07T02:37:26;31.48;;;14.88;;
59824;SDS011;45703;50.898;6.054;2024-01-07T02:39:52;31.58;;;14.95;;
59824;SDS011;45703;50.898;6.054;2024-01-07T02:42:17;32.97;;;14.57;;
59824;SDS011;45703;50.898;6.054;2024-01-07T02:44:42;27.65;;;13.60;;
59824;SDS011;45703;50.898;6.054;2024-01-07T02:47:08;34.17;;;14.98;;
59824;SDS011;45703;50.898;6.054;2024-01-07T02:49:33;31.55;;;13.77;;
59824;SDS011;45703;50.898;6.054;2024-01-07T02:51:59;32.85;;;13.80;;
59824;SDS011;45703;50.898;6.054;2024-01-07T02:54:24;31.05;;;14.02;;
59824;SDS011;45703;50.898;6.054;2024-01-07T02:56:50;30.65;;;15.38;;
59824;SDS011;45703;50.898;6.054;2024-01-07T02:59:15;29.15;;;12.70;;
59824;SDS011;45703;50.898;6.054;2024-01-07T03:01:40;25.23;;;11.82;;
59824;SDS011;45703;50.898;6.054;2024-01-07T03:04:08;26.95;;;12.23;;
59824;SDS011;45703;50.898;6.054;2024-01-07T03:06:35;28.80;;;12.90;;
59824;SDS011;45703;50.898;6.054;2024-01-07T03:09:00;25.20;;;11.95;;
59824;SDS011;45703;50.898;6.054;2024-01-07T03:11:25;24.60;;;11.38;;
59824;SDS011;45703;50.898;6.054;2024-01-07T03:13:51;25.02;;;11.43;;
59824;SDS011;45703;50.898;6.054;2024-01-07T03:16:20;24.65;;;11.63;;
59824;SDS011;45703;50.898;6.054;2024-01-07T03:18:49;26.33;;;12.07;;
59824;SDS011;45703;50.898;6.054;2024-01-07T03:21:18;23.42;;;11.57;;
59824;SDS011;45703;50.898;6.054;2024-01-07T03:23:47;23.75;;;10.07;;
59824;SDS011;45703;50.898;6.054;2024-01-07T03:26:15;22.35;;;10.48;;
59824;SDS011;45703;50.898;6.054;2024-01-07T03:28:41;21.63;;;9.82;;
59824;SDS011;45703;50.898;6.054;2024-01-07T03:31:08;20.63;;;9.90;;
59824;SDS011;45703;50.898;6.054;2024-01-07T03:33:34;19.50;;;8.93;;
59824;SDS011;45703;50.898;6.054;2024-01-07T03:36:00;19.67;;;9.50;;
59824;SDS011;45703;50.898;6.054;2024-01-07T03:38:25;21.45;;;10.23;;
59824;SDS011;45703;50.898;6.054;2024-01-07T03:40:51;22.33;;;10.07;;
59824;SDS011;45703;50.898;6.054;2024-01-07T03:43:16;20.30;;;9.95;;
59824;SDS011;45703;50.898;6.054;2024-01-07T03:45:41;23.70;;;10.13;;
59824;SDS011;45703;50.898;6.054;2024-01-07T03:48:08;18.33;;;8.80;;
59824;SDS011;45703;50.898;6.054;2024-01-07T03:50:34;18.33;;;8.75;;
59824;SDS011;45703;50.898;6.054;2024-01-07T03:52:59;19.52;;;9.10;;
59824;SDS011;45703;50.898;6.054;2024-01-07T03:55:24;21.20;;;9.43;;
59824;SDS011;45703;50.898;6.054;2024-01-07T03:57:50;17.67;;;8.23;;
59824;SDS011;45703;50.898;6.054;2024-01-07T04:00:15;20.83;;;9.40;;
59824;SDS011;45703;50.898;6.054;2024-01-07T04:02:41;18.65;;;8.63;;
59824;SDS011;45703;50.898;6.054;2024-01-07T04:05:07;22.85;;;10.32;;
59824;SDS011;45703;50.898;6.054;2024-01-07T04:07:32;20.50;;;9.20;;
59824;SDS011;45703;50.898;6.054;2024-01-07T04:09:59;23.38;;;10.73;;
59824;SDS011;45703;50.898;6.054;2024-01-07T04:12:24;24.30;;;11.30;;
59824;SDS011;45703;50.898;6.054;2024-01-07T04:14:49;26.58;;;10.18;;
59824;SDS011;45703;50.898;6.054;2024-01-07T04:17:15;25.55;;;11.80;;
59824;SDS011;45703;50.898;6.054;2024-01-07T04:19:40;24.85;;;9.82;;
59824;SDS011;45703;50.898;6.054;2024-01-07T04:22:05;25.30;;;11.40;;
59824;SDS011;45703;50.898;6.054;2024-01-07T04:24:31;22.83;;;9.68;;
59824;SDS011;45703;50.898;6.054;2024-01-07T04:26:56;25.42;;;11.63;;
59824;SDS011;45703;50.898;6.054;2024-01-07T04:29:22;25.35;;;10.93;;
59824;SDS011;45703;50.898;6.054;2024-01-07T04:31:47;28.20;;;12.80;;
59824;SDS011;45703;50.898;6.054;2024-01-07T04:34:12;28.17;;;13.30;;
59824;SDS011;45703;50.898;6.054;2024-01-07T04:36:38;28.02;;;12.30;;
59824;SDS011;45703;50.898;6.054;2024-01-07T04:39:03;25.17;;;11.23;;
59824;SDS011;45703;50.898;6.054;2024-01-07T04:41:29;27.60;;;12.20;;
59824;SDS011;45703;50.898;6.054;2024-01-07T04:43:54;28.08;;;12.18;;
59824;SDS011;45703;50.898;6.054;2024-01-07T04:46:19;24.48;;;11.70;;
59824;SDS011;45703;50.898;6.054;2024-01-07T04:48:45;24.98;;;11.63;;
59824;SDS011;45703;50.898;6.054;2024-01-07T04:51:10;27.35;;;13.15;;
59824;SDS011;45703;50.898;6.054;2024-01-07T04:53:36;29.90;;;13.10;;
59824;SDS011;45703;50.898;6.054;2024-01-07T04:56:02;27.00;;;11.98;;
59824;SDS011;45703;50.898;6.054;2024-01-07T04:58:27;28.23;;;12.98;;
59824;SDS011;45703;50.898;6.054;2024-01-07T05:00:53;35.42;;;15.60;;
59824;SDS011;45703;50.898;6.054;2024-01-07T05:03:18;32.15;;;14.55;;
59824;SDS011;45703;50.898;6.054;2024-01-07T05:05:43;31.85;;;15.45;;
59824;SDS011;45703;50.898;6.054;2024-01-07T05:08:09;35.08;;;16.02;;
59824;SDS011;45703;50.898;6.054;2024-01-07T05:10:34;32.20;;;15.27;;
59824;SDS011;45703;50.898;6.054;2024-01-07T05:12:59;33.50;;;16.25;;
59824;SDS011;45703;50.898;6.054;2024-01-07T05:15:30;27.45;;;13.65;;
59824;SDS011;45703;50.898;6.054;2024-01-07T05:17:55;33.53;;;15.85;;
59824;SDS011;45703;50.898;6.054;2024-01-07T05:20:21;28.40;;;13.35;;
59824;SDS011;45703;50.898;6.054;2024-01-07T05:22:46;32.95;;;16.35;;
59824;SDS011;45703;50.898;6.054;2024-01-07T05:25:11;32.00;;;15.38;;
59824;SDS011;45703;50.898;6.054;2024-01-07T05:27:37;33.97;;;14.52;;
59824;SDS011;45703;50.898;6.054;2024-01-07T05:30:02;32.28;;;15.07;;
59824;SDS011;45703;50.898;6.054;2024-01-07T05:32:28;35.95;;;17.13;;
59824;SDS011;45703;50.898;6.054;2024-01-07T05:34:54;33.97;;;15.95;;
59824;SDS011;45703;50.898;6.054;2024-01-07T05:37:19;32.97;;;15.68;;
59824;SDS011;45703;50.898;6.054;2024-01-07T05:39:44;32.40;;;15.40;;
59824;SDS011;45703;50.898;6.054;2024-01-07T05:42:10;29.25;;;14.85;;
59824;SDS011;45703;50.898;6.054;2024-01-07T05:44:35;28.88;;;13.75;;
59824;SDS011;45703;50.898;6.054;2024-01-07T05:47:01;29.65;;;15.15;;
59824;SDS011;45703;50.898;6.054;2024-01-07T05:49:26;35.30;;;16.45;;
59824;SDS011;45703;50.898;6.054;2024-01-07T05:51:52;31.90;;;16.10;;
59824;SDS011;45703;50.898;6.054;2024-01-07T05:54:17;42.25;;;17.80;;
59824;SDS011;45703;50.898;6.054;2024-01-07T05:56:42;36.70;;;17.27;;
59824;SDS011;45703;50.898;6.054;2024-01-07T05:59:08;32.80;;;15.27;;
59824;SDS011;45703;50.898;6.054;2024-01-07T06:01:34;33.72;;;15.68;;
59824;SDS011;45703;50.898;6.054;2024-01-07T06:04:00;35.10;;;16.00;;
59824;SDS011;45703;50.898;6.054;2024-01-07T06:06:25;35.67;;;16.15;;
59824;SDS011;45703;50.898;6.054;2024-01-07T06:08:50;31.27;;;12.98;;
59824;SDS011;45703;50.898;6.054;2024-01-07T06:11:16;31.55;;;13.57;;
59824;SDS011;45703;50.898;6.054;2024-01-07T06:13:45;31.95;;;15.18;;
59824;SDS011;45703;50.898;6.054;2024-01-07T06:16:10;39.35;;;17.60;;
59824;SDS011;45703;50.898;6.054;2024-01-07T06:18:35;39.90;;;18.45;;
59824;SDS011;45703;50.898;6.054;2024-01-07T06:21:01;37.40;;;18.02;;
59824;SDS011;45703;50.898;6.054;2024-01-07T06:23:26;32.35;;;16.40;;
59824;SDS011;45703;50.898;6.054;2024-01-07T06:25:52;32.92;;;16.83;;
59824;SDS011;45703;50.898;6.054;2024-01-07T06:28:17;34.15;;;17.27;;
59824;SDS011;45703;50.898;6.054;2024-01-07T06:30:42;33.85;;;16.85;;
59824;SDS011;45703;50.898;6.054;2024-01-07T06:33:08;32.85;;;16.48;;
59824;SDS011;45703;50.898;6.054;2024-01-07T06:35:33;32.63;;;14.13;;
59824;SDS011;45703;50.898;6.054;2024-01-07T06:37:58;33.47;;;15.30;;
59824;SDS011;45703;50.898;6.054;2024-01-07T06:40:24;33.50;;;14.85;;
59824;SDS011;45703;50.898;6.054;2024-01-07T06:42:50;32.33;;;15.57;;
59824;SDS011;45703;50.898;6.054;2024-01-07T06:45:16;29.52;;;15.63;;
59824;SDS011;45703;50.898;6.054;2024-01-07T06:47:42;28.38;;;13.73;;
59824;SDS011;45703;50.898;6.054;2024-01-07T06:50:08;26.55;;;14.30;;
59824;SDS011;45703;50.898;6.054;2024-01-07T06:52:34;28.25;;;13.45;;
59824;SDS011;45703;50.898;6.054;2024-01-07T06:55:00;26.88;;;13.55;;
59824;SDS011;45703;50.898;6.054;2024-01-07T06:57:26;26.45;;;13.27;;
59824;SDS011;45703;50.898;6.054;2024-01-07T06:59:51;27.10;;;13.77;;
59824;SDS011;45703;50.898;6.054;2024-01-07T07:02:17;26.67;;;13.70;;
59824;SDS011;45703;50.898;6.054;2024-01-07T07:04:42;29.70;;;14.80;;
59824;SDS011;45703;50.898;6.054;2024-01-07T07:07:07;27.50;;;14.52;;
59824;SDS011;45703;50.898;6.054;2024-01-07T07:09:33;32.25;;;15.55;;
59824;SDS011;45703;50.898;6.054;2024-01-07T07:11:59;36.00;;;17.88;;
59824;SDS011;45703;50.898;6.054;2024-01-07T07:14:24;35.20;;;18.95;;
59824;SDS011;45703;50.898;6.054;2024-01-07T07:16:50;29.27;;;15.70;;
59824;SDS011;45703;50.898;6.054;2024-01-07T07:19:15;28.55;;;15.60;;
59824;SDS011;45703;50.898;6.054;2024-01-07T07:21:41;29.45;;;15.38;;
59824;SDS011;45703;50.898;6.054;2024-01-07T07:24:09;32.15;;;16.92;;
59824;SDS011;45703;50.898;6.054;2024-01-07T07:26:34;32.60;;;17.33;;
59824;SDS011;45703;50.898;6.054;2024-01-07T07:29:01;35.13;;;17.80;;
59824;SDS011;45703;50.898;6.054;2024-01-07T07:31:27;35.00;;;18.60;;
59824;SDS011;45703;50.898;6.054;2024-01-07T07:33:52;31.45;;;16.25;;
59824;SDS011;45703;50.898;6.054;2024-01-07T07:36:17;28.25;;;14.98;;
59824;SDS011;45703;50.898;6.054;2024-01-07T07:38:43;32.33;;;17.95;;
59824;SDS011;45703;50.898;6.054;2024-01-07T07:41:08;33.53;;;19.00;;
59824;SDS011;45703;50.898;6.054;2024-01-07T07:43:34;34.42;;;18.65;;
59824;SDS011;45703;50.898;6.054;2024-01-07T07:45:59;29.40;;;13.98;;
59824;SDS011;45703;50.898;6.054;2024-01-07T07:48:26;27.23;;;12.70;;
59824;SDS011;45703;50.898;6.054;2024-01-07T07:50:53;24.65;;;13.27;;
59824;SDS011;45703;50.898;6.054;2024-01-07T07:53:18;33.67;;;18.27;;
59824;SDS011;45703;50.898;6.054;2024-01-07T07:55:43;36.17;;;18.70;;
59824;SDS011;45703;50.898;6.054;2024-01-07T07:58:09;30.05;;;15.55;;
59824;SDS011;45703;50.898;6.054;2024-01-07T08:00:34;33.58;;;17.58;;
59824;SDS011;45703;50.898;6.054;2024-01-07T08:03:00;33.58;;;16.67;;
59824;SDS011;45703;50.898;6.054;2024-01-07T08:05:25;29.67;;;15.93;;
59824;SDS011;45703;50.898;6.054;2024-01-07T08:07:50;30.98;;;17.15;;
59824;SDS011;45703;50.898;6.054;2024-01-07T08:10:16;34.22;;;17.02;;
59824;SDS011;45703;50.898;6.054;2024-01-07T08:12:41;32.28;;;18.23;;
59824;SDS011;45703;50.898;6.054;2024-01-07T08:15:07;28.30;;;15.68;;
59824;SDS011;45703;50.898;6.054;2024-01-07T08:17:32;30.38;;;16.85;;
59824;SDS011;45703;50.898;6.054;2024-01-07T08:19:58;31.25;;;17.05;;
59824;SDS011;45703;50.898;6.054;2024-01-07T08:22:23;32.50;;;16.52;;
59824;SDS011;45703;50.898;6.054;2024-01-07T08:24:49;28.60;;;15.13;;
59824;SDS011;45703;50.898;6.054;2024-01-07T08:27:15;27.90;;;14.25;;
59824;SDS011;45703;50.898;6.054;2024-01-07T08:29:44;29.98;;;14.70;;
59824;SDS011;45703;50.898;6.054;2024-01-07T08:32:09;27.98;;;15.27;;
59824;SDS011;45703;50.898;6.054;2024-01-07T08:34:34;27.40;;;13.45;;
59824;SDS011;45703;50.898;6.054;2024-01-07T08:37:00;28.33;;;15.95;;
59824;SDS011;45703;50.898;6.054;2024-01-07T08:39:25;32.40;;;17.88;;
59824;SDS011;45703;50.898;6.054;2024-01-07T08:41:53;33.35;;;17.25;;
59824;SDS011;45703;50.898;6.054;2024-01-07T08:44:19;26.20;;;14.23;;
59824;SDS011;45703;50.898;6.054;2024-01-07T08:46:44;31.13;;;16.73;;
59824;SDS011;45703;50.898;6.054;2024-01-07T08:49:10;33.10;;;17.30;;
59824;SDS011;45703;50.898;6.054;2024-01-07T08:51:36;31.38;;;17.35;;
59824;SDS011;45703;50.898;6.054;2024-01-07T08:54:01;35.85;;;19.15;;
59824;SDS011;45703;50.898;6.054;2024-01-07T08:56:26;29.48;;;16.38;;
59824;SDS011;45703;50.898;6.054;2024-01-07T08:58:52;34.20;;;18.98;;
59824;SDS011;45703;50.898;6.054;2024-01-07T09:01:17;31.77;;;16.10;;
59824;SDS011;45703;50.898;6.054;2024-01-07T09:03:43;34.75;;;18.08;;
59824;SDS011;45703;50.898;6.054;2024-01-07T09:06:08;33.17;;;17.35;;
59824;SDS011;45703;50.898;6.054;2024-01-07T09:08:33;35.25;;;19.40;;
59824;SDS011;45703;50.898;6.054;2024-01-07T09:11:00;29.10;;;16.02;;
59824;SDS011;45703;50.898;6.054;2024-01-07T09:13:26;31.50;;;16.88;;
59824;SDS011;45703;50.898;6.054;2024-01-07T09:15:52;35.00;;;17.77;;
59824;SDS011;45703;50.898;6.054;2024-01-07T09:18:17;27.52;;;15.65;;
59824;SDS011;45703;50.898;6.054;2024-01-07T09:20:43;27.60;;;14.73;;
59824;SDS011;45703;50.898;6.054;2024-01-07T09:23:09;30.40;;;16.65;;
59824;SDS011;45703;50.898;6.054;2024-01-07T09:25:34;31.45;;;15.98;;
59824;SDS011;45703;50.898;6.054;2024-01-07T09:27:59;31.77;;;15.65;;
59824;SDS011;45703;50.898;6.054;2024-01-07T09:30:25;33.55;;;17.85;;
59824;SDS011;45703;50.898;6.054;2024-01-07T09:32:51;27.58;;;14.10;;
59824;SDS011;45703;50.898;6.054;2024-01-07T09:35:16;33.80;;;17.38;;
59824;SDS011;45703;50.898;6.054;2024-01-07T09:37:42;36.25;;;18.27;;
59824;SDS011;45703;50.898;6.054;2024-01-07T09:40:07;28.52;;;14.32;;
59824;SDS011;45703;50.898;6.054;2024-01-07T09:42:33;30.35;;;17.05;;
59824;SDS011;45703;50.898;6.054;2024-01-07T09:45:02;30.15;;;17.45;;
59824;SDS011;45703;50.898;6.054;2024-01-07T09:47:29;31.88;;;17.17;;
59824;SDS011;45703;50.898;6.054;2024-01-07T09:49:55;25.35;;;13.68;;
59824;SDS011;45703;50.898;6.054;2024-01-07T09:52:20;27.55;;;15.95;;
59824;SDS011;45703;50.898;6.054;2024-01-07T09:54:46;29.92;;;16.70;;
59824;SDS011;45703;50.898;6.054;2024-01-07T09:57:16;32.08;;;17.02;;
59824;SDS011;45703;50.898;6.054;2024-01-07T09:59:42;26.30;;;15.05;;
59824;SDS011;45703;50.898;6.054;2024-01-07T10:02:07;30.90;;;16.27;;
59824;SDS011;45703;50.898;6.054;2024-01-07T10:04:34;29.25;;;16.05;;
59824;SDS011;45703;50.898;6.054;2024-01-07T10:07:00;24.48;;;13.48;;
59824;SDS011;45703;50.898;6.054;2024-01-07T10:09:29;26.15;;;15.65;;
59824;SDS011;45703;50.898;6.054;2024-01-07T10:11:57;23.90;;;13.77;;
59824;SDS011;45703;50.898;6.054;2024-01-07T10:14:23;24.25;;;13.35;;
59824;SDS011;45703;50.898;6.054;2024-01-07T10:16:50;25.23;;;12.65;;
59824;SDS011;45703;50.898;6.054;2024-01-07T10:19:23;26.10;;;13.75;;
59824;SDS011;45703;50.898;6.054;2024-01-07T10:22:02;26.10;;;12.65;;
59824;SDS011;45703;50.898;6.054;2024-01-07T10:24:35;30.33;;;16.35;;
59824;SDS011;45703;50.898;6.054;2024-01-07T10:27:03;26.38;;;14.48;;
59824;SDS011;45703;50.898;6.054;2024-01-07T10:29:29;28.38;;;15.10;;
59824;SDS011;45703;50.898;6.054;2024-01-07T10:31:57;24.60;;;12.93;;
59824;SDS011;45703;50.898;6.054;2024-01-07T10:34:23;25.55;;;14.07;;
59824;SDS011;45703;50.898;6.054;2024-01-07T10:36:51;26.42;;;13.65;;
59824;SDS011;45703;50.898;6.054;2024-01-07T10:39:19;25.23;;;15.82;;
59824;SDS011;45703;50.898;6.054;2024-01-07T10:41:45;22.38;;;13.23;;
59824;SDS011;45703;50.898;6.054;2024-01-07T10:44:12;22.02;;;11.80;;
59824;SDS011;45703;50.898;6.054;2024-01-07T10:46:38;20.52;;;11.63;;
59824;SDS011;45703;50.898;6.054;2024-01-07T10:49:07;17.98;;;9.18;;
59824;SDS011;45703;50.898;6.054;2024-01-07T10:51:43;21.08;;;11.75;;
59824;SDS011;45703;50.898;6.054;2024-01-07T10:54:10;21.02;;;11.20;;
59824;SDS011;45703;50.898;6.054;2024-01-07T10:56:39;24.92;;;13.07;;
59824;SDS011;45703;50.898;6.054;2024-01-07T11:01:35;21.90;;;11.52;;
59824;SDS011;45703;50.898;6.054;2024-01-07T11:04:08;21.35;;;11.55;;
59824;SDS011;45703;50.898;6.054;2024-01-07T11:06:45;20.95;;;12.55;;
59824;SDS011;45703;50.898;6.054;2024-01-07T11:09:33;22.67;;;13.30;;
59824;SDS011;45703;50.898;6.054;2024-01-07T11:12:03;18.70;;;10.80;;
59824;SDS011;45703;50.898;6.054;2024-01-07T11:17:12;19.38;;;10.20;;
59824;SDS011;45703;50.898;6.054;2024-01-07T11:19:50;22.15;;;11.57;;
59824;SDS011;45703;50.898;6.054;2024-01-07T11:24:53;25.15;;;12.63;;
59824;SDS011;45703;50.898;6.054;2024-01-07T11:27:21;18.45;;;10.48;;
59824;SDS011;45703;50.898;6.054;2024-01-07T11:30:04;19.60;;;10.80;;
59824;SDS011;45703;50.898;6.054;2024-01-07T11:32:33;21.70;;;10.60;;
59824;SDS011;45703;50.898;6.054;2024-01-07T11:35:00;21.67;;;11.30;;
59824;SDS011;45703;50.898;6.054;2024-01-07T11:37:26;21.58;;;11.45;;
59824;SDS011;45703;50.898;6.054;2024-01-07T11:39:55;20.52;;;10.95;;
59824;SDS011;45703;50.898;6.054;2024-01-07T11:42:23;20.40;;;11.95;;
59824;SDS011;45703;50.898;6.054;2024-01-07T11:44:50;22.15;;;11.80;;
59824;SDS011;45703;50.898;6.054;2024-01-07T11:47:16;22.08;;;11.95;;
59824;SDS011;45703;50.898;6.054;2024-01-07T11:49:43;20.52;;;11.02;;
59824;SDS011;45703;50.898;6.054;2024-01-07T11:52:09;19.70;;;10.60;;
59824;SDS011;45703;50.898;6.054;2024-01-07T11:54:38;19.88;;;11.73;;
59824;SDS011;45703;50.898;6.054;2024-01-07T11:57:04;20.38;;;12.20;;
59824;SDS011;45703;50.898;6.054;2024-01-07T11:59:33;21.05;;;11.90;;
59824;SDS011;45703;50.898;6.054;2024-01-07T12:02:00;21.05;;;11.65;;
59824;SDS011;45703;50.898;6.054;2024-01-07T12:04:26;20.98;;;11.95;;
59824;SDS011;45703;50.898;6.054;2024-01-07T12:06:51;20.67;;;11.93;;
59824;SDS011;45703;50.898;6.054;2024-01-07T12:09:17;17.95;;;9.23;;
59824;SDS011;45703;50.898;6.054;2024-01-07T12:11:43;18.75;;;9.88;;
59824;SDS011;45703;50.898;6.054;2024-01-07T12:14:09;19.50;;;11.77;;
59824;SDS011;45703;50.898;6.054;2024-01-07T12:16:36;18.48;;;10.25;;
59824;SDS011;45703;50.898;6.054;2024-01-07T12:19:01;22.05;;;11.40;;
59824;SDS011;45703;50.898;6.054;2024-01-07T12:21:27;18.45;;;10.45;;
59824;SDS011;45703;50.898;6.054;2024-01-07T12:23:54;19.25;;;10.80;;
59824;SDS011;45703;50.898;6.054;2024-01-07T12:26:25;20.15;;;10.30;;
59824;SDS011;45703;50.898;6.054;2024-01-07T12:28:55;21.25;;;11.98;;
59824;SDS011;45703;50.898;6.054;2024-01-07T12:31:27;20.60;;;12.88;;
59824;SDS011;45703;50.898;6.054;2024-01-07T12:33:53;21.15;;;11.98;;
59824;SDS011;45703;50.898;6.054;2024-01-07T12:36:22;21.35;;;10.63;;
59824;SDS011;45703;50.898;6.054;2024-01-07T12:38:48;23.98;;;13.73;;
59824;SDS011;45703;50.898;6.054;2024-01-07T12:41:14;22.80;;;12.93;;
59824;SDS011;45703;50.898;6.054;2024-01-07T12:43:39;21.83;;;11.75;;
59824;SDS011;45703;50.898;6.054;2024-01-07T12:46:04;19.67;;;12.93;;
59824;SDS011;45703;50.898;6.054;2024-01-07T12:48:30;20.02;;;11.80;;
59824;SDS011;45703;50.898;6.054;2024-01-07T12:50:56;15.60;;;9.68;;
59824;SDS011;45703;50.898;6.054;2024-01-07T12:53:22;22.48;;;11.93;;
59824;SDS011;45703;50.898;6.054;2024-01-07T12:55:48;18.67;;;10.43;;
59824;SDS011;45703;50.898;6.054;2024-01-07T12:58:13;16.95;;;9.88;;
59824;SDS011;45703;50.898;6.054;2024-01-07T13:00:39;20.35;;;11.32;;
59824;SDS011;45703;50.898;6.054;2024-01-07T13:03:05;17.40;;;10.38;;
59824;SDS011;45703;50.898;6.054;2024-01-07T13:05:32;18.00;;;10.57;;
59824;SDS011;45703;50.898;6.054;2024-01-07T13:07:58;17.90;;;10.15;;
59824;SDS011;45703;50.898;6.054;2024-01-07T13:10:23;17.92;;;10.20;;
59824;SDS011;45703;50.898;6.054;2024-01-07T13:12:49;18.55;;;10.52;;
59824;SDS011;45703;50.898;6.054;2024-01-07T13:15:15;18.60;;;9.45;;
59824;SDS011;45703;50.898;6.054;2024-01-07T13:17:40;18.13;;;10.95;;
59824;SDS011;45703;50.898;6.054;2024-01-07T13:20:06;18.88;;;10.98;;
59824;SDS011;45703;50.898;6.054;2024-01-07T13:22:36;15.83;;;8.23;;
59824;SDS011;45703;50.898;6.054;2024-01-07T13:25:03;21.75;;;9.60;;
59824;SDS011;45703;50.898;6.054;2024-01-07T13:27:29;13.35;;;7.15;;
59824;SDS011;45703;50.898;6.054;2024-01-07T13:29:55;18.30;;;8.02;;
59824;SDS011;45703;50.898;6.054;2024-01-07T13:32:20;16.52;;;8.07;;
59824;SDS011;45703;50.898;6.054;2024-01-07T13:34:46;15.85;;;8.73;;
59824;SDS011;45703;50.898;6.054;2024-01-07T13:37:12;13.75;;;7.65;;
59824;SDS011;45703;50.898;6.054;2024-01-07T13:39:38;18.95;;;9.23;;
59824;SDS011;45703;50.898;6.054;2024-01-07T13:42:03;15.93;;;8.75;;
59824;SDS011;45703;50.898;6.054;2024-01-07T13:44:31;16.10;;;8.52;;
59824;SDS011;45703;50.898;6.054;2024-01-07T13:46:56;14.15;;;8.75;;
59824;SDS011;45703;50.898;6.054;2024-01-07T13:49:21;15.13;;;7.45;;
59824;SDS011;45703;50.898;6.054;2024-01-07T13:51:47;14.93;;;8.32;;
59824;SDS011;45703;50.898;6.054;2024-01-07T13:54:12;15.60;;;7.47;;
59824;SDS011;45703;50.898;6.054;2024-01-07T13:56:42;15.20;;;8.73;;
59824;SDS011;45703;50.898;6.054;2024-01-07T13:59:09;16.52;;;9.02;;
59824;SDS011;45703;50.898;6.054;2024-01-07T14:01:35;11.00;;;7.05;;
59824;SDS011;45703;50.898;6.054;2024-01-07T14:04:01;13.20;;;8.05;;
59824;SDS011;45703;50.898;6.054;2024-01-07T14:06:27;13.70;;;8.05;;
59824;SDS011;45703;50.898;6.054;2024-01-07T14:08:52;15.20;;;8.98;;
59824;SDS011;45703;50.898;6.054;2024-01-07T14:11:18;15.95;;;7.25;;
59824;SDS011;45703;50.898;6.054;2024-01-07T14:13:44;14.82;;;8.15;;
59824;SDS011;45703;50.898;6.054;2024-01-07T14:16:10;14.30;;;7.20;;
59824;SDS011;45703;50.898;6.054;2024-01-07T14:18:36;14.18;;;8.30;;
59824;SDS011;45703;50.898;6.054;2024-01-07T14:21:01;14.02;;;8.75;;
59824;SDS011;45703;50.898;6.054;2024-01-07T14:23:30;14.80;;;8.85;;
59824;SDS011;45703;50.898;6.054;2024-01-07T14:25:57;13.30;;;7.03;;